Terminal Aerodrome Forecast
Issued by NWS

Current Version | Previous Version | Graphics & Text | Print | Product List | Glossary On
Versions: 1 2 3 4 5 6 7 8 9 10 11 12 13 14 15 16 17 18 19 20 21 22 23 24 25 26
000
FTUS41 KILN 240500
TAFLUK
TAF
KLUK 240524Z 2406/2506 VRB02KT P6SM SCT100 BKN250
     FM241400 17008KT P6SM SCT050 SCT100
     FM241800 18010G17KT P6SM SCT100 BKN200
     FM250000 15006KT P6SM BKN200=

USA.gov is the U.S. government's official web portal to all federal, state and local government web resources and services.